首页
METAR-TAF:

METAR-TAF

机场 :

Albert J. Ellis Airport

傑克遜維爾, 北卡罗来纳州, 美国

纬度: 34-50N, 经度: 077-37W, 海拔: 29米

当前天气观测

该预报发布于17分钟前的01:56 UTC
静风
温度 16°C
湿度 100%
气压 1017 hPa
能見度: 16.1公里
少量云层高于11000英尺
小雨

METAR: KOAJ 070156Z AUTO 00000KT 10SM -RA FEW110 16/16 A3004 RMK AO2 LTG DSNT SE AND SW TSE01RAE10B36 SLP173 P0000 T01610156

时间: 22:13 (02:13 UTC)

预报

该预报发布于2小时和2分钟前的00:11 UTC
预报有效从07日的 00点(UTC)到 07日的 24点(UTC)
风速8节,风向西转西南
能見度: 10公里
散云层高于3000英尺, 积雨云.
多云层高于7000英尺
附近有雷暴
短暂存在
从 07日的 00点(UTC)到 07日的 02点(UTC)
风速10节,风向多变,有时为30节阵风
能見度: 3.2公里
散云层高于1500英尺
多云层高于3000英尺, 积雨云.
雷暴, 雨
从 07日的 0200点(UTC)
风速节,风向
能見度: 10公里
散云层高于9000英尺
从 07日的 1300点(UTC)
风速4节,风向多变
能見度: 10公里
少量云层高于9000英尺
从 07日的 1800点(UTC)
风速8节,风向西南,有时为13节阵风
能見度: 10公里
散云层高于7000英尺

TAF: KOAJ 070011Z 0700/0724 25008KT P6SM VCTS SCT030CB BKN070 TEMPO 0700/0702 VRB10G30KT 2SM TSRA SCT015 BKN030CB FM070200 00000KT P6SM SCT090 FM071300 VRB04KT P6SM FEW090 FM071800 22008G13KT P6SM SCT070 AMD LTD TO CLD VIS AND WIND

超过4000个机场的气象观测和天气预报(METAR&TAF报告)。

可查询的气象台以黄色和红色小点在地图上表示。

将鼠标移到小点上方,可查看气象台名称。

然后点击查看天气观测和预报。

如需切换地图:点击带黑十字的绿色按钮放大地图;点击带横线的绿色按钮缩小地图;或者点击绿色箭头查看邻近地区的地图。


METAR-TAF: